createdAt,value
2022-07-26T00:00:42.757Z,99014.00
2022-07-26T00:01:42.839Z,99013.00
2022-07-26T00:02:47.422Z,99018.00
2022-07-26T00:03:42.752Z,99014.00
2022-07-26T00:04:42.783Z,99015.00
2022-07-26T00:05:42.806Z,99016.00
2022-07-26T00:06:42.873Z,99023.00
2022-07-26T00:07:42.842Z,99021.00
2022-07-26T00:08:42.844Z,99022.00
2022-07-26T00:09:48.059Z,99020.00
2022-07-26T00:10:42.884Z,99019.00
2022-07-26T00:11:42.926Z,99019.00
2022-07-26T00:12:42.934Z,99021.00
2022-07-26T00:13:42.906Z,99019.00
2022-07-26T00:14:42.933Z,99018.00
2022-07-26T00:15:42.931Z,99016.00
2022-07-26T00:16:43.120Z,99010.00
2022-07-26T00:17:42.956Z,99006.00
2022-07-26T00:18:42.952Z,99009.00
2022-07-26T00:19:42.969Z,99005.00
2022-07-26T00:20:42.999Z,99001.00
2022-07-26T00:21:43.027Z,98991.00
2022-07-26T00:22:43.067Z,98986.00
2022-07-26T00:23:43.059Z,98987.00
2022-07-26T00:24:43.049Z,98988.00
2022-07-26T00:25:43.061Z,98989.00
2022-07-26T00:26:43.102Z,98992.00
2022-07-26T00:27:43.144Z,99000.00
2022-07-26T00:28:43.127Z,99002.00
2022-07-26T00:29:43.136Z,99007.00
2022-07-26T00:30:43.166Z,99011.00
2022-07-26T00:31:43.238Z,99015.00
2022-07-26T00:32:43.215Z,99016.00
2022-07-26T00:33:43.219Z,99015.00
2022-07-26T00:34:43.246Z,99018.00
2022-07-26T00:35:43.243Z,99017.00
2022-07-26T00:36:43.285Z,99019.00
2022-07-26T00:37:43.279Z,99019.00
2022-07-26T00:38:43.282Z,99020.00
2022-07-26T00:39:43.248Z,99023.00
2022-07-26T00:40:43.267Z,99023.00
2022-07-26T00:41:43.306Z,99025.00
2022-07-26T00:42:43.331Z,99027.00
2022-07-26T00:43:43.378Z,99030.00
2022-07-26T00:44:43.355Z,99031.00
2022-07-26T00:45:43.440Z,99033.00
2022-07-26T00:46:43.460Z,99031.00
2022-07-26T00:47:43.402Z,99032.00
2022-07-26T00:48:43.464Z,99033.00
2022-07-26T00:49:43.401Z,99029.00
2022-07-26T00:50:43.425Z,99034.00
2022-07-26T00:51:46.424Z,99031.00
2022-07-26T00:52:43.468Z,99027.00
2022-07-26T00:53:43.461Z,99025.00
2022-07-26T00:54:43.480Z,99034.00
2022-07-26T00:55:43.492Z,99040.00
2022-07-26T00:56:43.543Z,99045.00
2022-07-26T00:57:43.518Z,99054.00
2022-07-26T00:58:43.500Z,99049.00
2022-07-26T00:59:43.540Z,99060.00
2022-07-26T01:00:43.564Z,99061.00
2022-07-26T01:01:43.749Z,99057.00
2022-07-26T01:02:43.755Z,99047.00
2022-07-26T01:03:43.716Z,99051.00
2022-07-26T01:04:43.624Z,99047.00
2022-07-26T01:05:43.658Z,99043.00
2022-07-26T01:06:43.695Z,99037.00
2022-07-26T01:07:43.735Z,99035.00
2022-07-26T01:08:43.753Z,99033.00
2022-07-26T01:09:43.795Z,99033.00
2022-07-26T01:10:43.833Z,99033.00
2022-07-26T01:11:43.803Z,99037.00
2022-07-26T01:12:43.857Z,99035.00
2022-07-26T01:13:43.880Z,99035.00
2022-07-26T01:14:43.877Z,99037.00
2022-07-26T01:15:43.927Z,99037.00
2022-07-26T01:16:43.884Z,99034.00
2022-07-26T01:17:43.928Z,99034.00
2022-07-26T01:18:43.980Z,99033.00
2022-07-26T01:19:43.948Z,99033.00
2022-07-26T01:20:43.990Z,99037.00
2022-07-26T01:21:44.010Z,99034.00
2022-07-26T01:22:44.043Z,99028.00
2022-07-26T01:23:44.073Z,99030.00
2022-07-26T01:24:44.064Z,99030.00
2022-07-26T01:25:45.975Z,99033.00
2022-07-26T01:26:44.033Z,99030.00
2022-07-26T01:27:44.053Z,99031.00
2022-07-26T01:28:44.079Z,99032.00
2022-07-26T01:29:44.108Z,99031.00
2022-07-26T01:30:44.170Z,99027.00
2022-07-26T01:31:44.169Z,99028.00
2022-07-26T01:32:44.147Z,99025.00
2022-07-26T01:33:44.177Z,99025.00
2022-07-26T01:34:44.216Z,99020.00
2022-07-26T01:35:44.237Z,99019.00
2022-07-26T01:38:10.154Z,99016.00
2022-07-26T01:39:10.167Z,99020.00
2022-07-26T01:40:10.149Z,99017.00
2022-07-26T01:41:10.166Z,99015.00
2022-07-26T01:42:10.169Z,99019.00
2022-07-26T01:43:10.195Z,99021.00
2022-07-26T01:44:10.614Z,99023.00
2022-07-26T01:45:10.236Z,99025.00
2022-07-26T01:46:10.349Z,99023.00
2022-07-26T01:47:10.310Z,99025.00
2022-07-26T01:48:10.287Z,99024.00
2022-07-26T01:49:10.414Z,99024.00
2022-07-26T01:50:10.342Z,99027.00
2022-07-26T01:51:10.370Z,99026.00
2022-07-26T01:52:10.388Z,99028.00
2022-07-26T01:53:10.429Z,99024.00
2022-07-26T01:54:10.941Z,99027.00
2022-07-26T01:55:10.397Z,99027.00
2022-07-26T01:56:10.430Z,99023.00
2022-07-26T01:57:10.429Z,99025.00
2022-07-26T01:58:10.439Z,99025.00
2022-07-26T01:59:10.463Z,99024.00
2022-07-26T02:00:10.566Z,99027.00
2022-07-26T02:01:10.533Z,99024.00
2022-07-26T02:02:10.642Z,99028.00
2022-07-26T02:03:10.575Z,99028.00
2022-07-26T02:04:10.951Z,99028.00
2022-07-26T02:05:10.524Z,99029.00
2022-07-26T02:06:10.554Z,99035.00
2022-07-26T02:07:13.075Z,99028.00
2022-07-26T02:08:10.565Z,99034.00
2022-07-26T02:09:12.620Z,99029.00
2022-07-26T02:10:10.557Z,99029.00
2022-07-26T02:11:10.589Z,99028.00
2022-07-26T02:12:10.589Z,99027.00
2022-07-26T02:13:10.621Z,99030.00
2022-07-26T02:14:11.085Z,99022.00
2022-07-26T02:15:10.664Z,99023.00
2022-07-26T02:16:10.809Z,99015.00
2022-07-26T02:17:10.698Z,99023.00
2022-07-26T02:18:10.695Z,99022.00
2022-07-26T02:19:10.711Z,99024.00
2022-07-26T02:20:10.752Z,99029.00
2022-07-26T02:21:10.759Z,99022.00
2022-07-26T02:22:10.787Z,99024.00
2022-07-26T02:23:10.796Z,99027.00
2022-07-26T02:24:11.069Z,99030.00
2022-07-26T02:25:10.843Z,99026.00
2022-07-26T02:26:10.822Z,99029.00
2022-07-26T02:27:10.821Z,99029.00
2022-07-26T02:28:10.846Z,99032.00
2022-07-26T02:29:10.883Z,99034.00
2022-07-26T02:30:10.893Z,99037.00
2022-07-26T02:31:11.685Z,99036.00
2022-07-26T02:32:10.879Z,99036.00
2022-07-26T02:33:10.877Z,99036.00
2022-07-26T02:34:11.206Z,99036.00
2022-07-26T02:35:10.899Z,99037.00
2022-07-26T02:36:10.926Z,99033.00
2022-07-26T02:37:10.927Z,99034.00
2022-07-26T02:38:10.968Z,99036.00
2022-07-26T02:39:10.986Z,99034.00
2022-07-26T02:40:15.486Z,99029.00
2022-07-26T02:41:11.042Z,99026.00
2022-07-26T02:42:11.297Z,99026.00
2022-07-26T02:43:11.082Z,99029.00
2022-07-26T02:44:11.514Z,99024.00
2022-07-26T02:45:11.083Z,99023.00
2022-07-26T02:46:11.198Z,99027.00
2022-07-26T02:47:12.578Z,99027.00
2022-07-26T02:48:11.132Z,99026.00
2022-07-26T02:49:11.262Z,99026.00
2022-07-26T02:50:11.158Z,99025.00
2022-07-26T02:51:11.140Z,99026.00
2022-07-26T02:52:11.119Z,99025.00
2022-07-26T02:53:11.151Z,99021.00
2022-07-26T02:54:11.563Z,99023.00
2022-07-26T02:55:11.168Z,99025.00
2022-07-26T02:56:11.193Z,99022.00
2022-07-26T02:57:11.161Z,99024.00
2022-07-26T02:58:11.159Z,99025.00
2022-07-26T02:59:11.146Z,99022.00
2022-07-26T03:00:11.173Z,99024.00
2022-07-26T03:01:11.234Z,99021.00
2022-07-26T03:02:11.221Z,99019.00
2022-07-26T03:03:11.292Z,99014.00
2022-07-26T03:04:11.575Z,99014.00
2022-07-26T03:05:11.266Z,99013.00
2022-07-26T03:06:11.293Z,99013.00
2022-07-26T03:07:11.290Z,99011.00
2022-07-26T03:08:11.343Z,99009.00
2022-07-26T03:09:11.316Z,99009.00
2022-07-26T03:10:11.330Z,99015.00
2022-07-26T03:11:12.230Z,99011.00
2022-07-26T03:12:11.358Z,99009.00
2022-07-26T03:13:11.377Z,99011.00
2022-07-26T03:14:11.780Z,99014.00
2022-07-26T03:15:11.404Z,99016.00
2022-07-26T03:16:11.496Z,99016.00
2022-07-26T03:17:11.417Z,99017.00
2022-07-26T03:18:11.457Z,99022.00
2022-07-26T03:19:11.457Z,99019.00
2022-07-26T03:20:11.458Z,99019.00
2022-07-26T03:21:11.485Z,99019.00
2022-07-26T03:22:11.509Z,99020.00
2022-07-26T03:23:11.548Z,99018.00
2022-07-26T03:24:11.781Z,99021.00
2022-07-26T03:25:11.550Z,99024.00
2022-07-26T03:26:11.561Z,99023.00
2022-07-26T03:27:11.588Z,99025.00
2022-07-26T03:28:16.003Z,99024.00
2022-07-26T03:29:11.694Z,99029.00
2022-07-26T03:30:11.623Z,99022.00
2022-07-26T03:31:11.742Z,99021.00
2022-07-26T03:32:11.660Z,99023.00
2022-07-26T03:33:11.689Z,99024.00
2022-07-26T03:34:11.862Z,99027.00
2022-07-26T03:35:11.727Z,99028.00
2022-07-26T03:36:15.791Z,99029.00
2022-07-26T03:37:11.722Z,99030.00
2022-07-26T03:38:11.717Z,99026.00
2022-07-26T03:39:11.760Z,99023.00
2022-07-26T03:40:11.778Z,99028.00
2022-07-26T03:41:13.491Z,99027.00
2022-07-26T03:42:11.787Z,99021.00
2022-07-26T03:43:11.784Z,99026.00
2022-07-26T03:44:11.937Z,99023.00
2022-07-26T03:45:11.805Z,99023.00
2022-07-26T03:46:11.907Z,99017.00
2022-07-26T03:47:11.839Z,99019.00
2022-07-26T03:48:11.852Z,99019.00
2022-07-26T03:49:16.417Z,99020.00
2022-07-26T03:50:11.872Z,99013.00
2022-07-26T03:51:11.892Z,99016.00
2022-07-26T03:52:11.914Z,99014.00
2022-07-26T03:53:11.914Z,99014.00
2022-07-26T03:54:12.512Z,99015.00
2022-07-26T03:55:11.970Z,99021.00
2022-07-26T03:56:11.989Z,99018.00
2022-07-26T03:57:12.009Z,99015.00
2022-07-26T03:58:12.032Z,99019.00
2022-07-26T03:59:12.087Z,99014.00
2022-07-26T04:00:12.045Z,99016.00
2022-07-26T04:01:12.130Z,99015.00
2022-07-26T04:02:12.114Z,99019.00
2022-07-26T04:03:12.087Z,99015.00
2022-07-26T04:04:12.335Z,99018.00
2022-07-26T04:05:12.104Z,99020.00
2022-07-26T04:06:12.115Z,99022.00
2022-07-26T04:07:12.127Z,99023.00
2022-07-26T04:08:12.121Z,99024.00
2022-07-26T04:09:12.150Z,99026.00
2022-07-26T04:10:12.145Z,99025.00
2022-07-26T04:11:12.163Z,99027.00
2022-07-26T04:12:12.161Z,99027.00
2022-07-26T04:13:12.184Z,99024.00
2022-07-26T04:14:12.551Z,99026.00
2022-07-26T04:15:12.211Z,99029.00
2022-07-26T04:16:12.219Z,99028.00
2022-07-26T04:17:12.278Z,99029.00
2022-07-26T04:18:12.248Z,99029.00
2022-07-26T04:19:12.263Z,99031.00
2022-07-26T04:20:12.239Z,99032.00
2022-07-26T04:21:12.262Z,99034.00
2022-07-26T04:22:12.288Z,99036.00
2022-07-26T04:23:12.519Z,99043.00
2022-07-26T04:24:12.458Z,99045.00
2022-07-26T04:25:12.365Z,99044.00
2022-07-26T04:26:12.370Z,99044.00
2022-07-26T04:27:12.406Z,99049.00
2022-07-26T04:28:12.433Z,99051.00
2022-07-26T04:29:12.497Z,99048.00
2022-07-26T04:30:15.050Z,99054.00
2022-07-26T04:31:12.611Z,99057.00
2022-07-26T04:32:12.484Z,99058.00
2022-07-26T04:33:12.516Z,99057.00
2022-07-26T04:34:12.555Z,99058.00
2022-07-26T04:35:12.546Z,99055.00
2022-07-26T04:36:12.559Z,99059.00
2022-07-26T04:37:12.592Z,99062.00
2022-07-26T04:38:12.610Z,99062.00
2022-07-26T04:39:12.641Z,99058.00
2022-07-26T04:40:13.078Z,99066.00
2022-07-26T04:41:12.677Z,99064.00
2022-07-26T04:42:12.683Z,99066.00
2022-07-26T04:43:15.586Z,99068.00
2022-07-26T04:44:12.703Z,99067.00
2022-07-26T04:45:12.729Z,99067.00
2022-07-26T04:46:12.813Z,99066.00
2022-07-26T04:47:12.752Z,99063.00
2022-07-26T04:48:12.789Z,99071.00
2022-07-26T04:49:12.850Z,99065.00
2022-07-26T04:50:12.767Z,99071.00
2022-07-26T04:51:12.781Z,99072.00
2022-07-26T04:52:12.800Z,99076.00
2022-07-26T04:53:12.792Z,99075.00
2022-07-26T04:54:12.775Z,99076.00
2022-07-26T04:55:12.805Z,99079.00
2022-07-26T04:56:12.822Z,99077.00
2022-07-26T04:57:12.857Z,99083.00
2022-07-26T04:58:12.841Z,99074.00
2022-07-26T04:59:12.872Z,99080.00
2022-07-26T05:01:38.873Z,99086.00
2022-07-26T05:02:38.876Z,99081.00
2022-07-26T05:03:38.827Z,99083.00
2022-07-26T05:04:38.831Z,99082.00
2022-07-26T05:05:38.851Z,99080.00
2022-07-26T05:06:38.856Z,99078.00
2022-07-26T05:07:38.852Z,99078.00
2022-07-26T05:08:38.848Z,99076.00
2022-07-26T05:09:38.854Z,99080.00
2022-07-26T05:10:38.903Z,99084.00
2022-07-26T05:11:38.898Z,99080.00
2022-07-26T05:12:38.872Z,99079.00
2022-07-26T05:13:38.910Z,99083.00
2022-07-26T05:14:38.915Z,99076.00
2022-07-26T05:15:38.915Z,99077.00
2022-07-26T05:16:44.011Z,99076.00
2022-07-26T05:17:38.962Z,99078.00
2022-07-26T05:18:48.742Z,99073.00
2022-07-26T05:19:39.013Z,99079.00
2022-07-26T05:20:39.039Z,99076.00
2022-07-26T05:21:39.053Z,99073.00
2022-07-26T05:22:39.066Z,99078.00
2022-07-26T05:23:39.086Z,99077.00
2022-07-26T05:24:39.064Z,99074.00
2022-07-26T05:25:39.096Z,99075.00
2022-07-26T05:26:39.067Z,99075.00
2022-07-26T05:27:39.104Z,99075.00
2022-07-26T05:28:39.123Z,99074.00
2022-07-26T05:29:39.103Z,99077.00
2022-07-26T05:30:39.245Z,99075.00
2022-07-26T05:31:39.147Z,99079.00
2022-07-26T05:32:39.157Z,99076.00
2022-07-26T05:33:39.188Z,99081.00
2022-07-26T05:34:39.213Z,99081.00
2022-07-26T05:35:39.701Z,99087.00
2022-07-26T05:36:39.262Z,99089.00
2022-07-26T05:37:39.288Z,99087.00
2022-07-26T05:38:39.307Z,99084.00
2022-07-26T05:39:39.285Z,99084.00
2022-07-26T05:40:39.320Z,99081.00
2022-07-26T05:41:39.335Z,99082.00
2022-07-26T05:42:39.574Z,99079.00
2022-07-26T05:43:41.661Z,99085.00
2022-07-26T05:44:42.383Z,99082.00
2022-07-26T05:45:39.502Z,99085.00
2022-07-26T05:46:39.589Z,99080.00
2022-07-26T05:47:39.397Z,99076.00
2022-07-26T05:48:39.513Z,99074.00
2022-07-26T05:49:40.128Z,99072.00
2022-07-26T05:50:39.442Z,99073.00
2022-07-26T05:51:39.453Z,99070.00
2022-07-26T05:52:39.476Z,99070.00
2022-07-26T05:53:39.498Z,99074.00
2022-07-26T05:54:39.571Z,99076.00
2022-07-26T05:55:39.649Z,99076.00
2022-07-26T05:56:39.530Z,99075.00
2022-07-26T05:57:39.537Z,99081.00
2022-07-26T05:58:39.902Z,99081.00
2022-07-26T05:59:39.691Z,99078.00
2022-07-26T06:00:39.731Z,99081.00
2022-07-26T06:01:39.996Z,99079.00
2022-07-26T06:02:39.648Z,99077.00
2022-07-26T06:03:39.585Z,99079.00
2022-07-26T06:04:39.715Z,99075.00
2022-07-26T06:05:39.635Z,99076.00
2022-07-26T06:06:39.668Z,99077.00
2022-07-26T06:07:39.803Z,99079.00
2022-07-26T06:08:39.791Z,99079.00
2022-07-26T06:09:39.740Z,99083.00
2022-07-26T06:10:39.678Z,99087.00
2022-07-26T06:11:39.680Z,99083.00
2022-07-26T06:12:39.702Z,99085.00
2022-07-26T06:13:39.720Z,99081.00
2022-07-26T06:14:39.755Z,99080.00
2022-07-26T06:15:39.780Z,99079.00
2022-07-26T06:16:39.903Z,99077.00
2022-07-26T06:17:39.808Z,99079.00
2022-07-26T06:18:39.794Z,99084.00
2022-07-26T06:19:43.017Z,99083.00
2022-07-26T06:20:39.833Z,99084.00
2022-07-26T06:21:39.861Z,99080.00
2022-07-26T06:22:39.893Z,99084.00
2022-07-26T06:23:39.867Z,99081.00
2022-07-26T06:24:39.893Z,99081.00
2022-07-26T06:25:39.919Z,99082.00
2022-07-26T06:26:40.084Z,99084.00
2022-07-26T06:27:39.949Z,99086.00
2022-07-26T06:28:39.963Z,99087.00
2022-07-26T06:29:39.976Z,99083.00
2022-07-26T06:30:39.997Z,99085.00
2022-07-26T06:31:40.059Z,99083.00
2022-07-26T06:32:40.054Z,99083.00
2022-07-26T06:33:40.030Z,99089.00
2022-07-26T06:34:40.010Z,99088.00
2022-07-26T06:35:40.031Z,99087.00
2022-07-26T06:36:40.055Z,99089.00
2022-07-26T06:37:40.091Z,99088.00
2022-07-26T06:38:40.125Z,99091.00
2022-07-26T06:39:40.126Z,99093.00
2022-07-26T06:40:40.165Z,99090.00
2022-07-26T06:41:40.183Z,99089.00
2022-07-26T06:42:40.225Z,99093.00
2022-07-26T06:43:40.216Z,99091.00
2022-07-26T06:44:40.268Z,99086.00
2022-07-26T06:45:40.326Z,99089.00
2022-07-26T06:46:40.273Z,99084.00
2022-07-26T06:47:40.301Z,99086.00
2022-07-26T06:48:40.344Z,99085.00
2022-07-26T06:49:40.341Z,99085.00
2022-07-26T06:50:40.362Z,99086.00
2022-07-26T06:51:40.374Z,99083.00
2022-07-26T06:52:40.402Z,99077.00
2022-07-26T06:53:40.418Z,99086.00
2022-07-26T06:54:40.398Z,99081.00
2022-07-26T06:55:40.429Z,99080.00
2022-07-26T06:56:40.420Z,99080.00
2022-07-26T06:57:49.820Z,99083.00
2022-07-26T06:58:40.474Z,99078.00
2022-07-26T06:59:40.514Z,99080.00
2022-07-26T07:00:40.628Z,99079.00
2022-07-26T07:01:57.524Z,99077.00
2022-07-26T07:02:40.550Z,99079.00
2022-07-26T07:03:40.572Z,99080.00
2022-07-26T07:04:40.673Z,99082.00
2022-07-26T07:05:40.606Z,99081.00
2022-07-26T07:06:40.654Z,99080.00
2022-07-26T07:07:42.702Z,99083.00
2022-07-26T07:08:40.674Z,99087.00
2022-07-26T07:09:40.708Z,99078.00
2022-07-26T07:10:40.747Z,99081.00
2022-07-26T07:11:40.792Z,99074.00
2022-07-26T07:12:40.798Z,99074.00
2022-07-26T07:13:40.827Z,99076.00
2022-07-26T07:14:40.913Z,99076.00
2022-07-26T07:15:40.817Z,99079.00
2022-07-26T07:16:40.858Z,99075.00
2022-07-26T07:17:40.844Z,99072.00
2022-07-26T07:18:40.837Z,99072.00
2022-07-26T07:19:40.832Z,99078.00
2022-07-26T07:20:40.804Z,99075.00
2022-07-26T07:21:40.840Z,99073.00
2022-07-26T07:22:40.933Z,99077.00
2022-07-26T07:23:40.886Z,99074.00
2022-07-26T07:24:40.893Z,99077.00
2022-07-26T07:25:40.937Z,99075.00
2022-07-26T07:26:40.945Z,99078.00
2022-07-26T07:27:40.988Z,99075.00
2022-07-26T07:28:41.000Z,99075.00
2022-07-26T07:29:41.489Z,99082.00
2022-07-26T07:30:40.989Z,99074.00
2022-07-26T07:31:48.723Z,99078.00
2022-07-26T07:32:41.040Z,99070.00
2022-07-26T07:33:52.896Z,99068.00
2022-07-26T07:34:41.013Z,99070.00
2022-07-26T07:35:41.015Z,99073.00
2022-07-26T07:36:41.044Z,99071.00
2022-07-26T07:37:52.747Z,99068.00
2022-07-26T07:38:42.880Z,99075.00
2022-07-26T07:39:41.444Z,99074.00
2022-07-26T07:40:41.134Z,99077.00
2022-07-26T07:41:41.089Z,99073.00
2022-07-26T07:42:41.119Z,99071.00
2022-07-26T07:43:41.154Z,99068.00
2022-07-26T07:44:41.125Z,99072.00
2022-07-26T07:45:41.126Z,99072.00
2022-07-26T07:46:41.277Z,99072.00
2022-07-26T07:47:41.176Z,99076.00
2022-07-26T07:48:47.121Z,99075.00
2022-07-26T07:49:41.202Z,99070.00
2022-07-26T07:50:41.264Z,99075.00
2022-07-26T07:51:41.232Z,99070.00
2022-07-26T07:52:41.261Z,99067.00
2022-07-26T07:53:41.232Z,99068.00
2022-07-26T07:54:42.220Z,99070.00
2022-07-26T07:55:43.850Z,99078.00
2022-07-26T07:56:41.310Z,99067.00
2022-07-26T07:57:41.318Z,99066.00
2022-07-26T07:58:41.328Z,99063.00
2022-07-26T07:59:41.326Z,99066.00
2022-07-26T08:00:41.449Z,99070.00
2022-07-26T08:01:41.490Z,99069.00
2022-07-26T08:02:41.331Z,99069.00
2022-07-26T08:03:41.496Z,99072.00
2022-07-26T08:04:41.681Z,99074.00
2022-07-26T08:05:41.450Z,99076.00
2022-07-26T08:06:41.468Z,99079.00
2022-07-26T08:07:41.444Z,99069.00
2022-07-26T08:08:41.457Z,99074.00
2022-07-26T08:09:43.059Z,99067.00
2022-07-26T08:10:43.654Z,99077.00
2022-07-26T08:11:41.885Z,99066.00
2022-07-26T08:12:41.533Z,99069.00
2022-07-26T08:13:47.582Z,99055.00
2022-07-26T08:14:41.629Z,99060.00
2022-07-26T08:15:41.566Z,99061.00
2022-07-26T08:16:41.675Z,99060.00
2022-07-26T08:17:42.022Z,99063.00
2022-07-26T08:18:53.588Z,99068.00
2022-07-26T08:19:42.554Z,99071.00
2022-07-26T08:20:41.674Z,99066.00
2022-07-26T08:21:41.684Z,99067.00
2022-07-26T08:22:41.700Z,99073.00
2022-07-26T08:23:41.697Z,99077.00
2022-07-26T08:24:41.732Z,99075.00
2022-07-26T08:25:55.186Z,99069.00
2022-07-26T08:26:41.772Z,99072.00
2022-07-26T08:27:42.167Z,99072.00
2022-07-26T08:28:58.603Z,99074.00
2022-07-26T08:29:41.820Z,99078.00
2022-07-26T08:30:41.842Z,99088.00
2022-07-26T08:31:41.919Z,99097.00
2022-07-26T08:32:41.881Z,99086.00
2022-07-26T08:33:46.373Z,99080.00
2022-07-26T08:34:41.930Z,99075.00
2022-07-26T08:35:41.950Z,99080.00
2022-07-26T08:37:06.944Z,99084.00
2022-07-26T08:37:41.992Z,99081.00
2022-07-26T08:38:42.041Z,99079.00
2022-07-26T08:39:42.028Z,99083.00
2022-07-26T08:40:42.052Z,99074.00
2022-07-26T08:41:42.078Z,99079.00
2022-07-26T08:42:42.118Z,99083.00
2022-07-26T08:43:46.676Z,99086.00
2022-07-26T08:44:42.114Z,99088.00
2022-07-26T08:45:42.144Z,99108.00
2022-07-26T08:46:42.247Z,99096.00
2022-07-26T08:48:00.719Z,99090.00
2022-07-26T08:48:42.231Z,99099.00
2022-07-26T08:49:42.198Z,99100.00
2022-07-26T08:50:42.229Z,99118.00
2022-07-26T08:51:42.280Z,99086.00
2022-07-26T08:52:42.258Z,99090.00
2022-07-26T08:53:42.291Z,99085.00
2022-07-26T08:54:42.303Z,99094.00
2022-07-26T08:56:05.800Z,99094.00
2022-07-26T08:56:42.332Z,99090.00
2022-07-26T08:57:42.315Z,99093.00
2022-07-26T08:58:42.402Z,99082.00
2022-07-26T08:59:42.376Z,99082.00
2022-07-26T09:00:42.436Z,99087.00
2022-07-26T09:01:42.465Z,99088.00
2022-07-26T09:02:42.413Z,99092.00
2022-07-26T09:03:42.579Z,99085.00
2022-07-26T09:04:44.690Z,99086.00
2022-07-26T09:05:42.439Z,99090.00
2022-07-26T09:06:42.509Z,99088.00
2022-07-26T09:07:42.511Z,99088.00
2022-07-26T09:08:42.524Z,99088.00
2022-07-26T09:09:42.614Z,99092.00
2022-07-26T09:10:42.558Z,99094.00
2022-07-26T09:11:42.571Z,99094.00
2022-07-26T09:12:43.653Z,99087.00
2022-07-26T09:13:42.596Z,99091.00
2022-07-26T09:14:42.671Z,99086.00
2022-07-26T09:15:42.648Z,99081.00
2022-07-26T09:16:42.687Z,99080.00
2022-07-26T09:17:42.668Z,99088.00
2022-07-26T09:18:42.648Z,99085.00
2022-07-26T09:19:42.812Z,99081.00
2022-07-26T09:20:42.680Z,99087.00
2022-07-26T09:21:42.712Z,99085.00
2022-07-26T09:22:42.715Z,99086.00
2022-07-26T09:23:42.722Z,99086.00
2022-07-26T09:24:42.755Z,99088.00
2022-07-26T09:25:42.822Z,99092.00
2022-07-26T09:26:42.776Z,99094.00
2022-07-26T09:27:42.860Z,99089.00
2022-07-26T09:28:45.060Z,99090.00
2022-07-26T09:29:42.788Z,99092.00
2022-07-26T09:30:42.764Z,99110.00
2022-07-26T09:31:42.863Z,99093.00
2022-07-26T09:32:42.830Z,99098.00
2022-07-26T09:33:42.842Z,99098.00
2022-07-26T09:34:52.045Z,99098.00
2022-07-26T09:35:50.631Z,99096.00
2022-07-26T09:36:42.913Z,99095.00
2022-07-26T09:37:42.954Z,99100.00
2022-07-26T09:38:42.941Z,99098.00
2022-07-26T09:39:42.966Z,99104.00
2022-07-26T09:40:42.980Z,99101.00
2022-07-26T09:41:42.984Z,99093.00
2022-07-26T09:42:42.987Z,99090.00
2022-07-26T09:43:43.016Z,99099.00
2022-07-26T09:44:47.859Z,99092.00
2022-07-26T09:45:43.052Z,99093.00
2022-07-26T09:46:43.152Z,99094.00
2022-07-26T09:47:43.107Z,99095.00
2022-07-26T09:49:13.046Z,99098.00
2022-07-26T09:49:43.206Z,99102.00
2022-07-26T09:50:43.569Z,99106.00
2022-07-26T09:51:43.131Z,99114.00
2022-07-26T09:52:43.153Z,99115.00
2022-07-26T09:53:43.195Z,99103.00
2022-07-26T09:54:43.196Z,99105.00
2022-07-26T09:55:45.032Z,99116.00
2022-07-26T09:56:43.208Z,99108.00
2022-07-26T09:57:43.236Z,99108.00
2022-07-26T09:58:43.271Z,99113.00
2022-07-26T09:59:43.243Z,99107.00
2022-07-26T10:00:43.282Z,99113.00
2022-07-26T10:01:43.389Z,99104.00
2022-07-26T10:02:43.342Z,99105.00
2022-07-26T10:03:43.335Z,99104.00
2022-07-26T10:04:43.330Z,99112.00
2022-07-26T10:05:43.288Z,99116.00
2022-07-26T10:06:43.316Z,99119.00
2022-07-26T10:07:43.416Z,99120.00
2022-07-26T10:08:43.344Z,99125.00
2022-07-26T10:09:43.352Z,99138.00
2022-07-26T10:10:43.362Z,99136.00
2022-07-26T10:11:43.408Z,99119.00
2022-07-26T10:12:43.413Z,99116.00
2022-07-26T10:13:43.435Z,99117.00
2022-07-26T10:14:43.523Z,99114.00
2022-07-26T10:15:43.552Z,99116.00
2022-07-26T10:16:43.431Z,99112.00
2022-07-26T10:17:43.444Z,99107.00
2022-07-26T10:18:43.445Z,99127.00
2022-07-26T10:19:45.547Z,99133.00
2022-07-26T10:20:43.445Z,99131.00
2022-07-26T10:21:43.459Z,99125.00
2022-07-26T10:22:43.483Z,99123.00
2022-07-26T10:23:43.649Z,99126.00
2022-07-26T10:24:43.575Z,99129.00
2022-07-26T10:25:43.501Z,99132.00
2022-07-26T10:26:44.618Z,99132.00
2022-07-26T10:27:43.563Z,99122.00
2022-07-26T10:28:43.571Z,99128.00
2022-07-26T10:29:43.613Z,99126.00
2022-07-26T10:30:43.589Z,99128.00
2022-07-26T10:31:43.684Z,99124.00
2022-07-26T10:32:43.628Z,99125.00
2022-07-26T10:33:43.662Z,99124.00
2022-07-26T10:34:43.682Z,99124.00
2022-07-26T10:35:43.818Z,99140.00
2022-07-26T10:36:43.700Z,99136.00
2022-07-26T10:37:43.792Z,99135.00
2022-07-26T10:38:43.733Z,99141.00
2022-07-26T10:39:43.767Z,99133.00
2022-07-26T10:40:43.793Z,99134.00
2022-07-26T10:41:43.798Z,99126.00
2022-07-26T10:42:43.873Z,99146.00
2022-07-26T10:43:43.839Z,99151.00
2022-07-26T10:44:43.845Z,99137.00
2022-07-26T10:45:43.862Z,99134.00
2022-07-26T10:46:43.953Z,99135.00
2022-07-26T10:47:43.893Z,99133.00
2022-07-26T10:48:43.987Z,99138.00
2022-07-26T10:49:43.911Z,99139.00
2022-07-26T10:50:43.918Z,99121.00
2022-07-26T10:51:43.953Z,99126.00
2022-07-26T10:52:43.960Z,99134.00
2022-07-26T10:53:43.932Z,99138.00
2022-07-26T10:54:43.958Z,99138.00
2022-07-26T10:55:43.973Z,99139.00
2022-07-26T10:56:44.014Z,99145.00
2022-07-26T10:57:44.154Z,99144.00
2022-07-26T10:58:44.030Z,99130.00
2022-07-26T10:59:55.861Z,99128.00
2022-07-26T11:00:44.076Z,99134.00
2022-07-26T11:01:44.183Z,99133.00
2022-07-26T11:02:44.299Z,99128.00
2022-07-26T11:03:44.134Z,99125.00
2022-07-26T11:04:44.204Z,99130.00
2022-07-26T11:05:44.162Z,99120.00
2022-07-26T11:06:44.177Z,99118.00
2022-07-26T11:07:44.206Z,99126.00
2022-07-26T11:08:47.877Z,99124.00
2022-07-26T11:09:44.194Z,99119.00
2022-07-26T11:10:44.199Z,99127.00
2022-07-26T11:11:46.341Z,99120.00
2022-07-26T11:12:44.238Z,99130.00
2022-07-26T11:13:44.253Z,99130.00
2022-07-26T11:14:48.250Z,99122.00
2022-07-26T11:15:44.443Z,99126.00
2022-07-26T11:16:44.427Z,99127.00
2022-07-26T11:17:44.339Z,99129.00
2022-07-26T11:18:44.275Z,99124.00
2022-07-26T11:19:44.292Z,99127.00
2022-07-26T11:20:44.323Z,99125.00
2022-07-26T11:21:44.353Z,99123.00
2022-07-26T11:22:44.372Z,99132.00
2022-07-26T11:23:44.387Z,99126.00
2022-07-26T11:24:44.369Z,99125.00
2022-07-26T11:25:44.391Z,99125.00
2022-07-26T11:26:44.398Z,99128.00
2022-07-26T11:27:44.483Z,99132.00
2022-07-26T11:28:44.464Z,99122.00
2022-07-26T11:29:49.111Z,99125.00
2022-07-26T11:30:44.510Z,99115.00
2022-07-26T11:31:49.493Z,99112.00
2022-07-26T11:32:44.501Z,99108.00
2022-07-26T11:33:44.524Z,99124.00
2022-07-26T11:34:44.524Z,99123.00
2022-07-26T11:35:44.519Z,99120.00
2022-07-26T11:36:44.562Z,99116.00
2022-07-26T11:37:44.585Z,99124.00
2022-07-26T11:38:44.619Z,99131.00
2022-07-26T11:39:44.593Z,99132.00
2022-07-26T11:40:44.592Z,99115.00
2022-07-26T11:41:44.608Z,99118.00
2022-07-26T11:42:44.637Z,99118.00
2022-07-26T11:43:44.650Z,99117.00
2022-07-26T11:44:44.650Z,99126.00
2022-07-26T11:45:44.672Z,99118.00
2022-07-26T11:46:44.734Z,99111.00
2022-07-26T11:47:44.713Z,99130.00